Savery, Wyoming
Current Conditions -  °F | °C
As of 5:53 AM on Thursday 30 Oct 2014 (Local Time) from KCAG Reporting Station
Clear Clear  
Wind Chill: 25°   Ceiling: Unl
Heat Index: 25°   Visibility: 10mi
Dew Point: 21°   Wind: 0mph
Humidity: 85%   Direction: NA
Pressure: 30.39"   Gusts: NA
Location:  41.02°N, 107.45°W
Report Text: KCAG 301153Z AUTO 00000KT 10SM CLR M04/M06 A3039 RMK AO2 SLP291 7//// T10391061 10000 21039 52004
Loading
Personal Weather Stations






























Interactive Weather Map
Tropical Storm Tracking
New forecast layout! Learn more

10-Day Weather Forecast

Advertisements
Track Severe Weather on mobile